sensor_id;sensor_type;location;lat;lon;timestamp;P1;durP1;ratioP1;P2;durP2;ratioP2
14858;SDS011;7521;51.700;6.874;2022-08-03T00:01:47;5.25;;;2.53;;
14858;SDS011;7521;51.700;6.874;2022-08-03T00:04:52;5.27;;;2.80;;
14858;SDS011;7521;51.700;6.874;2022-08-03T00:07:58;5.13;;;2.65;;
14858;SDS011;7521;51.700;6.874;2022-08-03T00:11:03;3.07;;;2.37;;
14858;SDS011;7521;51.700;6.874;2022-08-03T00:14:10;3.17;;;2.13;;
14858;SDS011;7521;51.700;6.874;2022-08-03T00:17:16;4.88;;;2.38;;
14858;SDS011;7521;51.700;6.874;2022-08-03T00:20:21;3.97;;;2.23;;
14858;SDS011;7521;51.700;6.874;2022-08-03T00:23:26;4.10;;;2.00;;
14858;SDS011;7521;51.700;6.874;2022-08-03T00:26:31;3.03;;;2.22;;
14858;SDS011;7521;51.700;6.874;2022-08-03T00:29:36;4.73;;;2.00;;
14858;SDS011;7521;51.700;6.874;2022-08-03T00:32:42;2.88;;;2.25;;
14858;SDS011;7521;51.700;6.874;2022-08-03T00:35:47;5.13;;;2.10;;
14858;SDS011;7521;51.700;6.874;2022-08-03T00:38:53;2.27;;;2.07;;
14858;SDS011;7521;51.700;6.874;2022-08-03T00:42:04;2.43;;;2.20;;
14858;SDS011;7521;51.700;6.874;2022-08-03T00:45:10;5.07;;;2.07;;
14858;SDS011;7521;51.700;6.874;2022-08-03T00:48:15;2.33;;;2.13;;
14858;SDS011;7521;51.700;6.874;2022-08-03T00:51:20;3.60;;;2.20;;
14858;SDS011;7521;51.700;6.874;2022-08-03T00:54:26;2.93;;;2.00;;
14858;SDS011;7521;51.700;6.874;2022-08-03T00:57:31;5.20;;;1.90;;
14858;SDS011;7521;51.700;6.874;2022-08-03T01:00:37;4.70;;;2.10;;
14858;SDS011;7521;51.700;6.874;2022-08-03T01:03:43;2.43;;;1.93;;
14858;SDS011;7521;51.700;6.874;2022-08-03T01:06:53;5.13;;;2.05;;
14858;SDS011;7521;51.700;6.874;2022-08-03T01:16:34;3.37;;;2.20;;
14858;SDS011;7521;51.700;6.874;2022-08-03T01:23:36;3.67;;;2.10;;
14858;SDS011;7521;51.700;6.874;2022-08-03T01:26:21;3.20;;;2.30;;
14858;SDS011;7521;51.700;6.874;2022-08-03T01:32:51;2.60;;;2.30;;
14858;SDS011;7521;51.700;6.874;2022-08-03T01:36:02;2.87;;;2.50;;
14858;SDS011;7521;51.700;6.874;2022-08-03T01:39:08;2.67;;;2.43;;
14858;SDS011;7521;51.700;6.874;2022-08-03T01:42:13;2.67;;;2.17;;
14858;SDS011;7521;51.700;6.874;2022-08-03T01:45:20;4.00;;;2.50;;
14858;SDS011;7521;51.700;6.874;2022-08-03T01:48:26;3.77;;;2.30;;
14858;SDS011;7521;51.700;6.874;2022-08-03T01:51:31;4.13;;;2.30;;
14858;SDS011;7521;51.700;6.874;2022-08-03T01:54:39;2.53;;;2.00;;
14858;SDS011;7521;51.700;6.874;2022-08-03T01:57:45;4.93;;;2.27;;
14858;SDS011;7521;51.700;6.874;2022-08-03T02:00:52;3.37;;;2.20;;
14858;SDS011;7521;51.700;6.874;2022-08-03T02:04:02;2.77;;;2.00;;
14858;SDS011;7521;51.700;6.874;2022-08-03T02:07:08;5.00;;;2.20;;
14858;SDS011;7521;51.700;6.874;2022-08-03T02:10:14;4.03;;;2.00;;
14858;SDS011;7521;51.700;6.874;2022-08-03T02:13:20;3.90;;;2.53;;
14858;SDS011;7521;51.700;6.874;2022-08-03T02:16:26;5.07;;;2.10;;
14858;SDS011;7521;51.700;6.874;2022-08-03T02:19:32;2.97;;;2.07;;
14858;SDS011;7521;51.700;6.874;2022-08-03T02:22:39;5.00;;;2.17;;
14858;SDS011;7521;51.700;6.874;2022-08-03T02:25:47;3.63;;;2.47;;
14858;SDS011;7521;51.700;6.874;2022-08-03T02:28:52;5.53;;;2.00;;
14858;SDS011;7521;51.700;6.874;2022-08-03T02:31:59;2.63;;;2.10;;
14858;SDS011;7521;51.700;6.874;2022-08-03T02:35:06;3.23;;;2.00;;
14858;SDS011;7521;51.700;6.874;2022-08-03T02:38:13;2.77;;;2.17;;
14858;SDS011;7521;51.700;6.874;2022-08-03T02:41:20;2.30;;;2.10;;
14858;SDS011;7521;51.700;6.874;2022-08-03T02:44:26;2.90;;;2.43;;
14858;SDS011;7521;51.700;6.874;2022-08-03T02:47:32;5.70;;;2.07;;
14858;SDS011;7521;51.700;6.874;2022-08-03T02:50:39;3.60;;;2.57;;
14858;SDS011;7521;51.700;6.874;2022-08-03T02:53:45;2.80;;;2.30;;
14858;SDS011;7521;51.700;6.874;2022-08-03T02:56:51;3.07;;;2.60;;
14858;SDS011;7521;51.700;6.874;2022-08-03T02:59:57;4.30;;;2.70;;
14858;SDS011;7521;51.700;6.874;2022-08-03T03:03:03;3.70;;;2.43;;
14858;SDS011;7521;51.700;6.874;2022-08-03T03:06:10;3.53;;;2.80;;
14858;SDS011;7521;51.700;6.874;2022-08-03T03:09:16;2.87;;;2.40;;
14858;SDS011;7521;51.700;6.874;2022-08-03T03:12:22;4.87;;;2.70;;
14858;SDS011;7521;51.700;6.874;2022-08-03T03:15:28;3.03;;;2.50;;
14858;SDS011;7521;51.700;6.874;2022-08-03T03:18:35;3.73;;;2.53;;
14858;SDS011;7521;51.700;6.874;2022-08-03T03:21:42;4.00;;;2.97;;
14858;SDS011;7521;51.700;6.874;2022-08-03T03:24:48;3.83;;;2.27;;
14858;SDS011;7521;51.700;6.874;2022-08-03T03:27:55;4.03;;;2.20;;
14858;SDS011;7521;51.700;6.874;2022-08-03T03:31:01;4.30;;;2.63;;
14858;SDS011;7521;51.700;6.874;2022-08-03T03:34:07;2.67;;;2.33;;
14858;SDS011;7521;51.700;6.874;2022-08-03T03:37:12;3.57;;;3.03;;
14858;SDS011;7521;51.700;6.874;2022-08-03T03:40:18;3.08;;;2.53;;
14858;SDS011;7521;51.700;6.874;2022-08-03T03:43:23;5.63;;;2.73;;
14858;SDS011;7521;51.700;6.874;2022-08-03T03:46:28;2.87;;;2.57;;
14858;SDS011;7521;51.700;6.874;2022-08-03T03:49:34;5.80;;;2.90;;
14858;SDS011;7521;51.700;6.874;2022-08-03T03:52:40;4.63;;;2.93;;
14858;SDS011;7521;51.700;6.874;2022-08-03T03:55:45;2.60;;;2.40;;
14858;SDS011;7521;51.700;6.874;2022-08-03T03:58:50;3.43;;;3.13;;
14858;SDS011;7521;51.700;6.874;2022-08-03T04:01:56;3.53;;;2.50;;
14858;SDS011;7521;51.700;6.874;2022-08-03T04:05:02;4.77;;;3.03;;
14858;SDS011;7521;51.700;6.874;2022-08-03T04:08:26;5.00;;;2.60;;
14858;SDS011;7521;51.700;6.874;2022-08-03T04:11:51;3.93;;;2.67;;
14858;SDS011;7521;51.700;6.874;2022-08-03T04:14:56;3.03;;;2.77;;
14858;SDS011;7521;51.700;6.874;2022-08-03T04:18:02;4.07;;;2.70;;
14858;SDS011;7521;51.700;6.874;2022-08-03T04:21:08;6.27;;;2.27;;
14858;SDS011;7521;51.700;6.874;2022-08-03T04:24:15;2.63;;;2.33;;
14858;SDS011;7521;51.700;6.874;2022-08-03T04:27:23;4.93;;;2.67;;
14858;SDS011;7521;51.700;6.874;2022-08-03T04:30:29;4.23;;;2.50;;
14858;SDS011;7521;51.700;6.874;2022-08-03T04:33:36;3.63;;;2.83;;
14858;SDS011;7521;51.700;6.874;2022-08-03T04:36:44;4.47;;;3.10;;
14858;SDS011;7521;51.700;6.874;2022-08-03T04:39:52;3.00;;;2.30;;
14858;SDS011;7521;51.700;6.874;2022-08-03T04:42:57;3.90;;;3.10;;
14858;SDS011;7521;51.700;6.874;2022-08-03T04:46:03;3.80;;;2.57;;
14858;SDS011;7521;51.700;6.874;2022-08-03T04:49:08;3.90;;;2.57;;
14858;SDS011;7521;51.700;6.874;2022-08-03T04:52:14;4.67;;;2.60;;
14858;SDS011;7521;51.700;6.874;2022-08-03T04:55:28;3.70;;;2.70;;
14858;SDS011;7521;51.700;6.874;2022-08-03T04:58:33;3.60;;;2.63;;
14858;SDS011;7521;51.700;6.874;2022-08-03T05:01:39;4.53;;;2.50;;
14858;SDS011;7521;51.700;6.874;2022-08-03T05:04:46;3.20;;;2.63;;
14858;SDS011;7521;51.700;6.874;2022-08-03T05:07:51;4.37;;;3.23;;
14858;SDS011;7521;51.700;6.874;2022-08-03T05:10:56;5.07;;;3.20;;
14858;SDS011;7521;51.700;6.874;2022-08-03T05:14:02;6.57;;;3.23;;
14858;SDS011;7521;51.700;6.874;2022-08-03T05:17:08;4.88;;;3.50;;
14858;SDS011;7521;51.700;6.874;2022-08-03T05:20:13;4.73;;;3.70;;
14858;SDS011;7521;51.700;6.874;2022-08-03T05:23:18;6.22;;;4.05;;
14858;SDS011;7521;51.700;6.874;2022-08-03T05:26:24;8.70;;;3.80;;
14858;SDS011;7521;51.700;6.874;2022-08-03T05:29:29;5.93;;;4.37;;
14858;SDS011;7521;51.700;6.874;2022-08-03T05:32:35;8.82;;;4.32;;
14858;SDS011;7521;51.700;6.874;2022-08-03T05:35:40;8.13;;;4.67;;
14858;SDS011;7521;51.700;6.874;2022-08-03T05:38:45;6.30;;;4.47;;
14858;SDS011;7521;51.700;6.874;2022-08-03T05:41:50;8.17;;;4.10;;
14858;SDS011;7521;51.700;6.874;2022-08-03T05:44:55;6.13;;;3.83;;
14858;SDS011;7521;51.700;6.874;2022-08-03T05:48:00;5.15;;;4.07;;
14858;SDS011;7521;51.700;6.874;2022-08-03T05:51:06;7.20;;;4.67;;
14858;SDS011;7521;51.700;6.874;2022-08-03T05:54:14;6.03;;;4.20;;
14858;SDS011;7521;51.700;6.874;2022-08-03T05:57:20;12.27;;;4.93;;
14858;SDS011;7521;51.700;6.874;2022-08-03T06:00:25;7.13;;;4.00;;
14858;SDS011;7521;51.700;6.874;2022-08-03T06:03:30;11.40;;;4.80;;
14858;SDS011;7521;51.700;6.874;2022-08-03T06:06:35;8.23;;;4.50;;
14858;SDS011;7521;51.700;6.874;2022-08-03T06:09:40;10.23;;;4.70;;
14858;SDS011;7521;51.700;6.874;2022-08-03T06:12:46;7.07;;;4.22;;
14858;SDS011;7521;51.700;6.874;2022-08-03T06:15:53;9.40;;;4.17;;
14858;SDS011;7521;51.700;6.874;2022-08-03T06:18:58;7.27;;;4.37;;
14858;SDS011;7521;51.700;6.874;2022-08-03T06:22:03;14.50;;;5.17;;
14858;SDS011;7521;51.700;6.874;2022-08-03T06:25:09;6.80;;;4.53;;
14858;SDS011;7521;51.700;6.874;2022-08-03T06:28:14;8.53;;;4.80;;
14858;SDS011;7521;51.700;6.874;2022-08-03T06:31:20;10.23;;;4.50;;
14858;SDS011;7521;51.700;6.874;2022-08-03T06:34:26;9.10;;;4.13;;
14858;SDS011;7521;51.700;6.874;2022-08-03T06:37:40;11.90;;;5.00;;
14858;SDS011;7521;51.700;6.874;2022-08-03T06:40:45;11.47;;;5.30;;
14858;SDS011;7521;51.700;6.874;2022-08-03T06:43:51;9.57;;;5.70;;
14858;SDS011;7521;51.700;6.874;2022-08-03T06:46:56;12.63;;;6.63;;
14858;SDS011;7521;51.700;6.874;2022-08-03T06:50:05;8.83;;;5.83;;
14858;SDS011;7521;51.700;6.874;2022-08-03T06:53:11;12.07;;;5.17;;
14858;SDS011;7521;51.700;6.874;2022-08-03T06:56:16;10.93;;;4.97;;
14858;SDS011;7521;51.700;6.874;2022-08-03T06:59:21;9.75;;;4.03;;
14858;SDS011;7521;51.700;6.874;2022-08-03T07:02:27;11.13;;;4.40;;
14858;SDS011;7521;51.700;6.874;2022-08-03T07:05:32;9.93;;;4.73;;
14858;SDS011;7521;51.700;6.874;2022-08-03T07:08:39;10.17;;;4.07;;
14858;SDS011;7521;51.700;6.874;2022-08-03T07:11:44;12.50;;;4.40;;
14858;SDS011;7521;51.700;6.874;2022-08-03T07:14:49;6.50;;;3.40;;
14858;SDS011;7521;51.700;6.874;2022-08-03T07:17:54;10.37;;;3.90;;
14858;SDS011;7521;51.700;6.874;2022-08-03T07:20:59;11.48;;;3.63;;
14858;SDS011;7521;51.700;6.874;2022-08-03T07:24:04;10.23;;;3.20;;
14858;SDS011;7521;51.700;6.874;2022-08-03T07:27:10;11.43;;;4.32;;
14858;SDS011;7521;51.700;6.874;2022-08-03T07:30:15;9.10;;;3.70;;
14858;SDS011;7521;51.700;6.874;2022-08-03T07:33:20;11.80;;;4.30;;
14858;SDS011;7521;51.700;6.874;2022-08-03T07:36:25;9.37;;;3.83;;
14858;SDS011;7521;51.700;6.874;2022-08-03T07:39:31;5.27;;;3.20;;
14858;SDS011;7521;51.700;6.874;2022-08-03T07:42:36;5.47;;;2.13;;
14858;SDS011;7521;51.700;6.874;2022-08-03T07:45:41;3.95;;;2.03;;
14858;SDS011;7521;51.700;6.874;2022-08-03T07:48:46;7.97;;;2.40;;
14858;SDS011;7521;51.700;6.874;2022-08-03T07:51:51;6.17;;;1.90;;
14858;SDS011;7521;51.700;6.874;2022-08-03T07:55:16;5.43;;;2.13;;
14858;SDS011;7521;51.700;6.874;2022-08-03T07:58:21;4.53;;;1.83;;
14858;SDS011;7521;51.700;6.874;2022-08-03T08:01:27;6.73;;;2.03;;
14858;SDS011;7521;51.700;6.874;2022-08-03T08:04:33;4.73;;;1.80;;
14858;SDS011;7521;51.700;6.874;2022-08-03T08:07:38;3.90;;;1.50;;
14858;SDS011;7521;51.700;6.874;2022-08-03T08:10:44;4.63;;;1.70;;
14858;SDS011;7521;51.700;6.874;2022-08-03T08:13:49;5.25;;;2.20;;
14858;SDS011;7521;51.700;6.874;2022-08-03T08:16:54;5.33;;;2.23;;
14858;SDS011;7521;51.700;6.874;2022-08-03T08:19:59;2.87;;;1.83;;
14858;SDS011;7521;51.700;6.874;2022-08-03T08:23:05;4.90;;;1.80;;
14858;SDS011;7521;51.700;6.874;2022-08-03T08:26:11;3.93;;;1.93;;
14858;SDS011;7521;51.700;6.874;2022-08-03T08:29:16;3.00;;;1.80;;
14858;SDS011;7521;51.700;6.874;2022-08-03T08:32:21;7.40;;;1.87;;
14858;SDS011;7521;51.700;6.874;2022-08-03T08:35:26;5.30;;;1.83;;
14858;SDS011;7521;51.700;6.874;2022-08-03T08:38:33;5.07;;;1.67;;
14858;SDS011;7521;51.700;6.874;2022-08-03T08:41:38;2.77;;;1.43;;
14858;SDS011;7521;51.700;6.874;2022-08-03T08:44:43;5.10;;;1.67;;
14858;SDS011;7521;51.700;6.874;2022-08-03T08:47:49;5.80;;;1.80;;
14858;SDS011;7521;51.700;6.874;2022-08-03T08:50:55;7.70;;;2.47;;
14858;SDS011;7521;51.700;6.874;2022-08-03T08:54:01;5.03;;;1.60;;
14858;SDS011;7521;51.700;6.874;2022-08-03T08:57:07;7.73;;;1.70;;
14858;SDS011;7521;51.700;6.874;2022-08-03T09:00:13;4.53;;;1.73;;
14858;SDS011;7521;51.700;6.874;2022-08-03T09:03:19;6.53;;;1.97;;
14858;SDS011;7521;51.700;6.874;2022-08-03T09:06:24;3.90;;;1.80;;
14858;SDS011;7521;51.700;6.874;2022-08-03T09:09:29;6.73;;;1.93;;
14858;SDS011;7521;51.700;6.874;2022-08-03T09:12:41;6.93;;;1.97;;
14858;SDS011;7521;51.700;6.874;2022-08-03T09:15:46;6.67;;;1.83;;
14858;SDS011;7521;51.700;6.874;2022-08-03T09:18:53;4.43;;;2.00;;
14858;SDS011;7521;51.700;6.874;2022-08-03T09:25:13;3.67;;;1.33;;
14858;SDS011;7521;51.700;6.874;2022-08-03T09:28:18;5.03;;;1.80;;
14858;SDS011;7521;51.700;6.874;2022-08-03T09:31:33;7.50;;;2.13;;
14858;SDS011;7521;51.700;6.874;2022-08-03T09:34:39;4.40;;;1.77;;
14858;SDS011;7521;51.700;6.874;2022-08-03T09:37:44;3.27;;;1.57;;
14858;SDS011;7521;51.700;6.874;2022-08-03T09:40:49;3.72;;;1.27;;
14858;SDS011;7521;51.700;6.874;2022-08-03T09:43:54;2.60;;;1.50;;
14858;SDS011;7521;51.700;6.874;2022-08-03T09:47:01;5.57;;;2.00;;
14858;SDS011;7521;51.700;6.874;2022-08-03T09:50:07;3.13;;;1.83;;
14858;SDS011;7521;51.700;6.874;2022-08-03T09:53:12;4.87;;;1.73;;
14858;SDS011;7521;51.700;6.874;2022-08-03T09:56:17;3.97;;;1.87;;
14858;SDS011;7521;51.700;6.874;2022-08-03T09:59:24;6.33;;;2.00;;
14858;SDS011;7521;51.700;6.874;2022-08-03T10:02:29;4.03;;;1.57;;
14858;SDS011;7521;51.700;6.874;2022-08-03T10:05:35;5.63;;;1.60;;
14858;SDS011;7521;51.700;6.874;2022-08-03T10:08:40;4.53;;;1.80;;
14858;SDS011;7521;51.700;6.874;2022-08-03T10:11:45;6.97;;;1.73;;
14858;SDS011;7521;51.700;6.874;2022-08-03T10:14:51;5.33;;;1.80;;
14858;SDS011;7521;51.700;6.874;2022-08-03T10:17:56;5.90;;;1.70;;
14858;SDS011;7521;51.700;6.874;2022-08-03T10:21:03;5.87;;;1.57;;
14858;SDS011;7521;51.700;6.874;2022-08-03T10:24:08;8.43;;;1.80;;
14858;SDS011;7521;51.700;6.874;2022-08-03T10:27:14;3.93;;;1.63;;
14858;SDS011;7521;51.700;6.874;2022-08-03T10:30:20;3.10;;;1.47;;
14858;SDS011;7521;51.700;6.874;2022-08-03T10:33:26;4.20;;;1.50;;
14858;SDS011;7521;51.700;6.874;2022-08-03T10:36:32;4.53;;;1.50;;
14858;SDS011;7521;51.700;6.874;2022-08-03T10:39:37;6.87;;;1.97;;
14858;SDS011;7521;51.700;6.874;2022-08-03T10:43:06;4.13;;;1.53;;
14858;SDS011;7521;51.700;6.874;2022-08-03T10:46:14;3.83;;;1.63;;
14858;SDS011;7521;51.700;6.874;2022-08-03T10:49:20;4.33;;;1.70;;
14858;SDS011;7521;51.700;6.874;2022-08-03T10:52:25;3.80;;;1.53;;
14858;SDS011;7521;51.700;6.874;2022-08-03T10:58:54;5.43;;;1.30;;
14858;SDS011;7521;51.700;6.874;2022-08-03T11:02:00;6.20;;;1.53;;
14858;SDS011;7521;51.700;6.874;2022-08-03T11:05:24;8.10;;;1.63;;
14858;SDS011;7521;51.700;6.874;2022-08-03T11:08:33;3.03;;;1.40;;
14858;SDS011;7521;51.700;6.874;2022-08-03T11:11:42;4.53;;;1.23;;
14858;SDS011;7521;51.700;6.874;2022-08-03T11:14:47;4.17;;;1.47;;
14858;SDS011;7521;51.700;6.874;2022-08-03T11:18:06;5.63;;;1.40;;
14858;SDS011;7521;51.700;6.874;2022-08-03T11:21:12;7.40;;;1.90;;
14858;SDS011;7521;51.700;6.874;2022-08-03T11:27:45;6.03;;;1.50;;
14858;SDS011;7521;51.700;6.874;2022-08-03T11:30:50;4.80;;;1.47;;
14858;SDS011;7521;51.700;6.874;2022-08-03T11:34:02;7.40;;;1.37;;
14858;SDS011;7521;51.700;6.874;2022-08-03T11:37:23;4.93;;;1.20;;
14858;SDS011;7521;51.700;6.874;2022-08-03T11:43:52;4.07;;;1.23;;
14858;SDS011;7521;51.700;6.874;2022-08-03T11:46:57;5.57;;;1.73;;
14858;SDS011;7521;51.700;6.874;2022-08-03T11:50:04;3.30;;;1.47;;
14858;SDS011;7521;51.700;6.874;2022-08-03T11:53:13;7.87;;;1.47;;
14858;SDS011;7521;51.700;6.874;2022-08-03T11:56:19;3.70;;;1.30;;
14858;SDS011;7521;51.700;6.874;2022-08-03T11:59:31;6.60;;;2.60;;
14858;SDS011;7521;51.700;6.874;2022-08-03T12:02:36;3.20;;;1.27;;
14858;SDS011;7521;51.700;6.874;2022-08-03T12:05:49;5.17;;;1.67;;
14858;SDS011;7521;51.700;6.874;2022-08-03T12:08:54;3.03;;;1.37;;
14858;SDS011;7521;51.700;6.874;2022-08-03T12:11:59;8.47;;;1.30;;
14858;SDS011;7521;51.700;6.874;2022-08-03T12:15:05;6.80;;;1.40;;
14858;SDS011;7521;51.700;6.874;2022-08-03T12:18:12;6.00;;;1.47;;
14858;SDS011;7521;51.700;6.874;2022-08-03T12:21:18;3.10;;;1.27;;
14858;SDS011;7521;51.700;6.874;2022-08-03T12:24:38;8.83;;;2.17;;
14858;SDS011;7521;51.700;6.874;2022-08-03T12:27:43;5.23;;;1.73;;
14858;SDS011;7521;51.700;6.874;2022-08-03T12:30:49;2.80;;;1.37;;
14858;SDS011;7521;51.700;6.874;2022-08-03T12:33:56;3.00;;;0.97;;
14858;SDS011;7521;51.700;6.874;2022-08-03T12:37:03;2.97;;;1.30;;
14858;SDS011;7521;51.700;6.874;2022-08-03T12:40:08;2.87;;;1.20;;
14858;SDS011;7521;51.700;6.874;2022-08-03T12:43:14;1.80;;;1.10;;
14858;SDS011;7521;51.700;6.874;2022-08-03T12:46:20;5.50;;;1.10;;
14858;SDS011;7521;51.700;6.874;2022-08-03T12:49:25;5.63;;;1.20;;
14858;SDS011;7521;51.700;6.874;2022-08-03T12:52:35;3.83;;;1.10;;
14858;SDS011;7521;51.700;6.874;2022-08-03T12:55:46;6.43;;;1.05;;
14858;SDS011;7521;51.700;6.874;2022-08-03T12:58:51;2.25;;;0.90;;
14858;SDS011;7521;51.700;6.874;2022-08-03T13:01:57;3.22;;;0.95;;
14858;SDS011;7521;51.700;6.874;2022-08-03T13:05:08;4.13;;;1.10;;
14858;SDS011;7521;51.700;6.874;2022-08-03T13:08:23;3.22;;;1.20;;
14858;SDS011;7521;51.700;6.874;2022-08-03T13:11:29;4.57;;;1.08;;
14858;SDS011;7521;51.700;6.874;2022-08-03T13:14:34;6.80;;;1.20;;
14858;SDS011;7521;51.700;6.874;2022-08-03T13:17:40;5.77;;;1.10;;
14858;SDS011;7521;51.700;6.874;2022-08-03T13:20:45;3.05;;;1.00;;
14858;SDS011;7521;51.700;6.874;2022-08-03T13:23:50;2.38;;;0.70;;
14858;SDS011;7521;51.700;6.874;2022-08-03T13:26:56;5.20;;;1.17;;
14858;SDS011;7521;51.700;6.874;2022-08-03T13:30:01;4.73;;;1.40;;
14858;SDS011;7521;51.700;6.874;2022-08-03T13:33:07;5.28;;;1.10;;
14858;SDS011;7521;51.700;6.874;2022-08-03T13:36:12;6.35;;;1.13;;
14858;SDS011;7521;51.700;6.874;2022-08-03T13:39:18;1.55;;;0.60;;
14858;SDS011;7521;51.700;6.874;2022-08-03T13:42:24;3.08;;;0.80;;
14858;SDS011;7521;51.700;6.874;2022-08-03T13:45:29;4.75;;;0.88;;
14858;SDS011;7521;51.700;6.874;2022-08-03T13:48:34;4.05;;;1.02;;
14858;SDS011;7521;51.700;6.874;2022-08-03T13:51:39;3.80;;;0.95;;
14858;SDS011;7521;51.700;6.874;2022-08-03T13:54:44;4.25;;;1.17;;
14858;SDS011;7521;51.700;6.874;2022-08-03T13:57:50;3.83;;;1.00;;
14858;SDS011;7521;51.700;6.874;2022-08-03T14:00:55;2.05;;;0.77;;
14858;SDS011;7521;51.700;6.874;2022-08-03T14:04:00;3.03;;;0.85;;
14858;SDS011;7521;51.700;6.874;2022-08-03T14:07:05;5.28;;;1.00;;
14858;SDS011;7521;51.700;6.874;2022-08-03T14:10:11;3.30;;;1.27;;
14858;SDS011;7521;51.700;6.874;2022-08-03T14:13:16;4.63;;;1.25;;
14858;SDS011;7521;51.700;6.874;2022-08-03T14:16:21;3.50;;;1.27;;
14858;SDS011;7521;51.700;6.874;2022-08-03T14:19:26;2.43;;;0.93;;
14858;SDS011;7521;51.700;6.874;2022-08-03T14:22:31;2.83;;;1.00;;
14858;SDS011;7521;51.700;6.874;2022-08-03T14:25:37;6.20;;;0.77;;
14858;SDS011;7521;51.700;6.874;2022-08-03T14:28:42;4.60;;;1.47;;
14858;SDS011;7521;51.700;6.874;2022-08-03T14:31:48;4.93;;;0.85;;
14858;SDS011;7521;51.700;6.874;2022-08-03T14:34:53;3.58;;;0.95;;
14858;SDS011;7521;51.700;6.874;2022-08-03T14:37:58;3.42;;;1.00;;
14858;SDS011;7521;51.700;6.874;2022-08-03T14:41:03;2.53;;;1.00;;
14858;SDS011;7521;51.700;6.874;2022-08-03T14:44:08;2.55;;;0.80;;
14858;SDS011;7521;51.700;6.874;2022-08-03T14:47:14;1.88;;;0.65;;
14858;SDS011;7521;51.700;6.874;2022-08-03T14:50:19;6.05;;;1.10;;
14858;SDS011;7521;51.700;6.874;2022-08-03T14:53:24;3.95;;;1.17;;
14858;SDS011;7521;51.700;6.874;2022-08-03T14:56:29;4.70;;;1.13;;
14858;SDS011;7521;51.700;6.874;2022-08-03T14:59:34;2.95;;;0.85;;
14858;SDS011;7521;51.700;6.874;2022-08-03T15:02:39;4.60;;;1.15;;
14858;SDS011;7521;51.700;6.874;2022-08-03T15:05:45;3.67;;;0.90;;
14858;SDS011;7521;51.700;6.874;2022-08-03T15:08:50;5.30;;;1.13;;
14858;SDS011;7521;51.700;6.874;2022-08-03T15:11:55;4.10;;;0.98;;
14858;SDS011;7521;51.700;6.874;2022-08-03T15:15:00;2.13;;;0.95;;
14858;SDS011;7521;51.700;6.874;2022-08-03T15:18:05;4.45;;;1.00;;
14858;SDS011;7521;51.700;6.874;2022-08-03T15:21:11;3.65;;;1.15;;
14858;SDS011;7521;51.700;6.874;2022-08-03T15:24:16;6.60;;;1.40;;
14858;SDS011;7521;51.700;6.874;2022-08-03T15:27:21;6.53;;;1.63;;
14858;SDS011;7521;51.700;6.874;2022-08-03T15:30:27;7.43;;;1.57;;
14858;SDS011;7521;51.700;6.874;2022-08-03T15:33:32;6.37;;;1.43;;
14858;SDS011;7521;51.700;6.874;2022-08-03T15:36:37;3.20;;;1.27;;
14858;SDS011;7521;51.700;6.874;2022-08-03T15:39:42;2.30;;;1.00;;
14858;SDS011;7521;51.700;6.874;2022-08-03T15:42:48;7.80;;;1.43;;
14858;SDS011;7521;51.700;6.874;2022-08-03T15:45:53;7.70;;;1.10;;
14858;SDS011;7521;51.700;6.874;2022-08-03T15:48:58;2.53;;;1.03;;
14858;SDS011;7521;51.700;6.874;2022-08-03T15:52:03;4.47;;;1.20;;
14858;SDS011;7521;51.700;6.874;2022-08-03T15:55:15;2.45;;;0.93;;
14858;SDS011;7521;51.700;6.874;2022-08-03T15:58:20;2.40;;;0.80;;
14858;SDS011;7521;51.700;6.874;2022-08-03T16:01:25;4.93;;;1.07;;
14858;SDS011;7521;51.700;6.874;2022-08-03T16:04:30;3.77;;;1.03;;
14858;SDS011;7521;51.700;6.874;2022-08-03T16:07:36;5.13;;;1.17;;
14858;SDS011;7521;51.700;6.874;2022-08-03T16:10:47;5.53;;;1.27;;
14858;SDS011;7521;51.700;6.874;2022-08-03T16:13:52;5.27;;;1.17;;
14858;SDS011;7521;51.700;6.874;2022-08-03T16:16:57;9.53;;;1.60;;
14858;SDS011;7521;51.700;6.874;2022-08-03T16:20:03;8.80;;;2.23;;
14858;SDS011;7521;51.700;6.874;2022-08-03T16:23:09;9.37;;;2.27;;
14858;SDS011;7521;51.700;6.874;2022-08-03T16:26:14;7.40;;;1.77;;
14858;SDS011;7521;51.700;6.874;2022-08-03T16:29:19;13.90;;;1.90;;
14858;SDS011;7521;51.700;6.874;2022-08-03T16:32:24;10.77;;;2.30;;
14858;SDS011;7521;51.700;6.874;2022-08-03T16:35:30;7.37;;;1.90;;
14858;SDS011;7521;51.700;6.874;2022-08-03T16:38:35;9.13;;;1.93;;
14858;SDS011;7521;51.700;6.874;2022-08-03T16:41:40;7.77;;;1.83;;
14858;SDS011;7521;51.700;6.874;2022-08-03T16:44:45;11.00;;;2.40;;
14858;SDS011;7521;51.700;6.874;2022-08-03T16:47:51;8.87;;;2.17;;
14858;SDS011;7521;51.700;6.874;2022-08-03T16:50:56;6.13;;;1.80;;
14858;SDS011;7521;51.700;6.874;2022-08-03T16:54:01;6.63;;;2.50;;
14858;SDS011;7521;51.700;6.874;2022-08-03T16:57:06;6.30;;;2.00;;
14858;SDS011;7521;51.700;6.874;2022-08-03T17:00:12;11.17;;;2.17;;
14858;SDS011;7521;51.700;6.874;2022-08-03T17:03:18;8.37;;;1.53;;
14858;SDS011;7521;51.700;6.874;2022-08-03T17:06:25;6.67;;;1.73;;
14858;SDS011;7521;51.700;6.874;2022-08-03T17:09:30;6.30;;;1.60;;
14858;SDS011;7521;51.700;6.874;2022-08-03T17:12:36;5.87;;;1.50;;
14858;SDS011;7521;51.700;6.874;2022-08-03T17:15:43;7.03;;;1.93;;
14858;SDS011;7521;51.700;6.874;2022-08-03T17:18:51;7.30;;;1.83;;
14858;SDS011;7521;51.700;6.874;2022-08-03T17:22:00;10.20;;;2.00;;
14858;SDS011;7521;51.700;6.874;2022-08-03T17:25:06;10.70;;;2.10;;
14858;SDS011;7521;51.700;6.874;2022-08-03T17:28:12;8.43;;;2.33;;
14858;SDS011;7521;51.700;6.874;2022-08-03T17:31:18;7.33;;;1.60;;
14858;SDS011;7521;51.700;6.874;2022-08-03T17:34:23;6.50;;;2.25;;
14858;SDS011;7521;51.700;6.874;2022-08-03T17:37:29;8.70;;;1.53;;
14858;SDS011;7521;51.700;6.874;2022-08-03T17:40:34;13.02;;;2.47;;
14858;SDS011;7521;51.700;6.874;2022-08-03T17:43:39;8.05;;;2.03;;
14858;SDS011;7521;51.700;6.874;2022-08-03T17:46:45;7.97;;;1.55;;
14858;SDS011;7521;51.700;6.874;2022-08-03T17:49:50;7.47;;;1.80;;
14858;SDS011;7521;51.700;6.874;2022-08-03T17:53:03;11.23;;;1.83;;
14858;SDS011;7521;51.700;6.874;2022-08-03T17:59:16;4.50;;;1.55;;
14858;SDS011;7521;51.700;6.874;2022-08-03T18:02:33;6.43;;;1.65;;
14858;SDS011;7521;51.700;6.874;2022-08-03T18:05:59;5.53;;;1.55;;
14858;SDS011;7521;51.700;6.874;2022-08-03T18:09:07;5.57;;;1.65;;
14858;SDS011;7521;51.700;6.874;2022-08-03T18:12:23;7.55;;;1.77;;
14858;SDS011;7521;51.700;6.874;2022-08-03T18:15:42;3.20;;;1.45;;
14858;SDS011;7521;51.700;6.874;2022-08-03T18:18:50;4.68;;;1.50;;
14858;SDS011;7521;51.700;6.874;2022-08-03T18:21:58;5.68;;;1.73;;
14858;SDS011;7521;51.700;6.874;2022-08-03T18:25:04;4.80;;;1.45;;
14858;SDS011;7521;51.700;6.874;2022-08-03T18:28:10;4.80;;;1.88;;
14858;SDS011;7521;51.700;6.874;2022-08-03T18:31:15;5.43;;;1.70;;
14858;SDS011;7521;51.700;6.874;2022-08-03T18:34:21;3.33;;;1.13;;
14858;SDS011;7521;51.700;6.874;2022-08-03T18:37:26;6.53;;;1.88;;
14858;SDS011;7521;51.700;6.874;2022-08-03T18:40:32;5.93;;;1.33;;
14858;SDS011;7521;51.700;6.874;2022-08-03T18:43:41;4.37;;;1.47;;
14858;SDS011;7521;51.700;6.874;2022-08-03T18:46:54;5.97;;;1.83;;
14858;SDS011;7521;51.700;6.874;2022-08-03T18:59:45;10.73;;;1.67;;
14858;SDS011;7521;51.700;6.874;2022-08-03T19:02:56;6.73;;;1.47;;
14858;SDS011;7521;51.700;6.874;2022-08-03T19:06:05;5.70;;;1.63;;
14858;SDS011;7521;51.700;6.874;2022-08-03T19:09:12;8.43;;;2.00;;
14858;SDS011;7521;51.700;6.874;2022-08-03T19:12:22;5.03;;;1.97;;
14858;SDS011;7521;51.700;6.874;2022-08-03T19:15:27;9.47;;;1.70;;
14858;SDS011;7521;51.700;6.874;2022-08-03T19:18:33;7.30;;;1.57;;
14858;SDS011;7521;51.700;6.874;2022-08-03T19:21:40;8.47;;;1.80;;
14858;SDS011;7521;51.700;6.874;2022-08-03T19:24:46;4.30;;;1.17;;
14858;SDS011;7521;51.700;6.874;2022-08-03T19:27:51;5.63;;;1.23;;
14858;SDS011;7521;51.700;6.874;2022-08-03T19:30:58;5.77;;;1.77;;
14858;SDS011;7521;51.700;6.874;2022-08-03T19:34:04;6.77;;;1.87;;
14858;SDS011;7521;51.700;6.874;2022-08-03T19:37:10;3.93;;;1.47;;
14858;SDS011;7521;51.700;6.874;2022-08-03T19:40:19;4.87;;;1.47;;